createdAt,value
2018-06-15T00:00:20.031Z,17.25
2018-06-15T00:02:54.405Z,17.03
2018-06-15T00:05:23.521Z,17.27
2018-06-15T00:07:53.230Z,17.03
2018-06-15T00:10:22.373Z,17.30
2018-06-15T00:12:51.481Z,17.25
2018-06-15T00:15:20.591Z,17.39
2018-06-15T00:17:49.708Z,16.98
2018-06-15T00:20:18.825Z,17.20
2018-06-15T00:22:47.929Z,16.93
2018-06-15T00:25:17.041Z,16.84
2018-06-15T00:27:46.156Z,17.16
2018-06-15T00:30:15.258Z,17.19
2018-06-15T00:32:44.377Z,17.18
2018-06-15T00:35:13.474Z,17.07
2018-06-15T00:37:42.584Z,16.86
2018-06-15T00:40:11.686Z,16.90
2018-06-15T00:42:40.809Z,17.19
2018-06-15T00:45:09.907Z,17.28
2018-06-15T00:47:39.022Z,17.27
2018-06-15T00:50:08.125Z,17.20
2018-06-15T00:52:37.246Z,17.31
2018-06-15T00:55:06.583Z,17.33
2018-06-15T00:57:44.133Z,17.35
2018-06-15T01:00:13.226Z,17.35
2018-06-15T01:02:42.365Z,17.07
2018-06-15T01:05:11.513Z,17.15
2018-06-15T01:07:40.644Z,17.34
2018-06-15T01:10:09.785Z,17.33
2018-06-15T01:12:38.893Z,17.33
2018-06-15T01:15:08.030Z,17.30
2018-06-15T01:17:37.521Z,17.35
2018-06-15T01:20:07.198Z,17.42
2018-06-15T01:22:36.423Z,17.37
2018-06-15T01:25:05.617Z,17.46
2018-06-15T01:27:34.817Z,17.24
2018-06-15T01:30:03.985Z,17.29
2018-06-15T01:32:33.081Z,17.08
2018-06-15T01:35:02.177Z,17.12
2018-06-15T01:37:31.289Z,16.97
2018-06-15T01:40:00.413Z,17.18
2018-06-15T01:42:29.526Z,17.25
2018-06-15T01:44:58.641Z,17.23
2018-06-15T01:47:27.777Z,17.00
2018-06-15T01:49:56.903Z,16.91
2018-06-15T01:52:26.034Z,17.06
2018-06-15T01:54:55.124Z,16.96
2018-06-15T01:57:24.278Z,17.08
2018-06-15T01:59:53.385Z,17.08
2018-06-15T02:02:22.507Z,17.03
2018-06-15T02:04:51.609Z,16.43
2018-06-15T02:07:20.705Z,16.74
2018-06-15T02:09:50.057Z,16.69
2018-06-15T02:12:19.169Z,16.75
2018-06-15T02:14:48.272Z,16.84
2018-06-15T02:17:17.481Z,16.88
2018-06-15T02:19:46.557Z,16.85
2018-06-15T02:22:15.741Z,16.68
2018-06-15T02:24:44.865Z,16.84
2018-06-15T02:27:13.985Z,16.85
2018-06-15T02:29:43.081Z,16.92
2018-06-15T02:32:12.193Z,16.95
2018-06-15T02:34:41.295Z,16.86
2018-06-15T02:37:10.394Z,16.66
2018-06-15T02:39:39.525Z,16.67
2018-06-15T02:42:08.655Z,16.62
2018-06-15T02:44:37.756Z,16.76
2018-06-15T02:47:06.855Z,16.79
2018-06-15T02:49:35.965Z,16.82
2018-06-15T02:52:05.110Z,16.62
2018-06-15T02:54:34.212Z,16.76
2018-06-15T02:57:03.317Z,16.88
2018-06-15T02:59:32.482Z,16.86
2018-06-15T03:02:01.591Z,16.91
2018-06-15T03:04:30.712Z,16.89
2018-06-15T03:06:59.833Z,16.97
2018-06-15T03:09:28.942Z,16.90
2018-06-15T03:11:58.085Z,16.89
2018-06-15T03:14:27.186Z,17.08
2018-06-15T03:16:56.405Z,17.03
2018-06-15T03:19:25.517Z,17.00
2018-06-15T03:21:54.617Z,16.84
2018-06-15T03:24:23.724Z,16.84
2018-06-15T03:26:52.837Z,16.95
2018-06-15T03:29:21.930Z,16.83
2018-06-15T03:31:51.052Z,16.80
2018-06-15T03:34:20.158Z,16.87
2018-06-15T03:36:49.256Z,16.65
2018-06-15T03:39:18.357Z,16.58
2018-06-15T03:41:47.468Z,16.75
2018-06-15T03:44:16.601Z,16.79
2018-06-15T03:46:45.730Z,16.57
2018-06-15T03:49:14.866Z,16.77
2018-06-15T03:51:44.006Z,16.66
2018-06-15T03:54:13.130Z,16.53
2018-06-15T03:56:42.239Z,16.56
2018-06-15T03:59:11.466Z,16.78
2018-06-15T04:01:40.570Z,16.78
2018-06-15T04:04:09.704Z,16.80
2018-06-15T04:06:38.809Z,16.77
2018-06-15T04:09:09.581Z,16.89
2018-06-15T04:11:39.068Z,16.86
2018-06-15T04:14:08.198Z,16.83
2018-06-15T04:16:37.341Z,16.87
2018-06-15T04:19:06.541Z,16.88
2018-06-15T04:21:35.659Z,16.88
2018-06-15T04:24:04.767Z,16.86
2018-06-15T04:26:33.929Z,16.79
2018-06-15T04:29:03.061Z,16.70
2018-06-15T04:31:32.213Z,16.77
2018-06-15T04:34:01.317Z,16.54
2018-06-15T04:36:30.493Z,16.84
2018-06-15T04:38:59.658Z,16.88
2018-06-15T04:41:28.846Z,17.00
2018-06-15T04:43:58.041Z,16.89
2018-06-15T04:46:27.117Z,16.85
2018-06-15T04:48:56.253Z,16.99
2018-06-15T04:51:25.343Z,16.82
2018-06-15T04:53:54.448Z,16.89
2018-06-15T04:56:23.581Z,16.88
2018-06-15T04:58:52.637Z,16.79
2018-06-15T05:01:21.753Z,16.71
2018-06-15T05:03:50.853Z,16.74
2018-06-15T05:06:20.061Z,16.87
2018-06-15T05:08:49.174Z,17.09
2018-06-15T05:11:18.277Z,16.53
2018-06-15T05:13:47.374Z,16.60
2018-06-15T05:16:16.493Z,16.69
2018-06-15T05:18:45.663Z,17.07
2018-06-15T05:21:15.146Z,17.10
2018-06-15T05:23:44.229Z,16.92
2018-06-15T05:26:13.365Z,16.95
2018-06-15T05:28:42.511Z,16.91
2018-06-15T05:31:11.617Z,17.16
2018-06-15T05:33:40.734Z,16.86
2018-06-15T05:36:09.849Z,17.06
2018-06-15T05:38:38.945Z,17.27
2018-06-15T05:41:08.042Z,17.25
2018-06-15T05:43:37.181Z,17.38
2018-06-15T05:46:06.290Z,17.24
2018-06-15T05:48:35.490Z,16.92
2018-06-15T05:51:04.582Z,17.23
2018-06-15T05:53:33.690Z,17.41
2018-06-15T05:56:02.814Z,17.36
2018-06-15T05:58:31.925Z,17.56
2018-06-15T06:01:01.130Z,17.56
2018-06-15T06:03:30.250Z,17.60
2018-06-15T06:05:59.382Z,17.65
2018-06-15T06:08:28.678Z,17.71
2018-06-15T06:10:57.798Z,17.31
2018-06-15T06:13:26.974Z,17.72
2018-06-15T06:15:56.077Z,17.65
2018-06-15T06:18:25.167Z,17.83
2018-06-15T06:20:54.309Z,17.71
2018-06-15T06:23:23.443Z,17.91
2018-06-15T06:25:52.617Z,17.82
2018-06-15T06:28:21.729Z,17.85
2018-06-15T06:30:50.841Z,17.79
2018-06-15T06:33:19.945Z,17.79
2018-06-15T06:35:49.086Z,17.97
2018-06-15T06:38:18.230Z,17.79
2018-06-15T06:40:47.349Z,17.56
2018-06-15T06:43:16.477Z,17.85
2018-06-15T06:45:45.578Z,17.73
2018-06-15T06:48:14.685Z,18.00
2018-06-15T06:50:43.794Z,18.14
2018-06-15T06:53:12.917Z,17.89
2018-06-15T06:55:42.018Z,18.21
2018-06-15T06:58:11.229Z,18.36
2018-06-15T07:00:40.581Z,18.45
2018-06-15T07:03:09.689Z,18.67
2018-06-15T07:05:38.797Z,18.64
2018-06-15T07:08:07.894Z,18.90
2018-06-15T07:10:36.993Z,18.30
2018-06-15T07:13:06.130Z,18.67
2018-06-15T07:15:35.237Z,19.41
2018-06-15T07:18:04.343Z,19.39
2018-06-15T07:20:33.535Z,19.12
2018-06-15T07:23:02.721Z,19.05
2018-06-15T07:25:31.831Z,18.98
2018-06-15T07:28:00.940Z,18.74
2018-06-15T07:30:30.061Z,19.47
2018-06-15T07:32:59.169Z,20.35
2018-06-15T07:35:28.333Z,19.87
2018-06-15T07:37:57.431Z,19.77
2018-06-15T07:40:26.577Z,19.62
2018-06-15T07:42:55.681Z,19.80
2018-06-15T07:45:24.773Z,19.47
2018-06-15T07:47:53.883Z,19.11
2018-06-15T07:50:22.986Z,19.09
2018-06-15T07:52:52.186Z,18.71
2018-06-15T07:55:21.306Z,18.53
2018-06-15T07:57:50.417Z,18.67
2018-06-15T08:00:19.502Z,18.57
2018-06-15T08:02:48.621Z,19.21
2018-06-15T08:05:17.725Z,18.80
2018-06-15T08:07:46.841Z,19.16
2018-06-15T08:10:16.067Z,19.87
2018-06-15T08:12:45.117Z,19.80
2018-06-15T08:15:14.265Z,19.61
2018-06-15T08:17:43.402Z,20.76
2018-06-15T08:20:12.541Z,20.96
2018-06-15T08:22:41.634Z,20.22
2018-06-15T08:25:10.768Z,20.75
2018-06-15T08:27:39.875Z,20.38
2018-06-15T08:30:08.969Z,20.65
2018-06-15T08:32:38.101Z,20.96
2018-06-15T08:35:07.219Z,20.80
2018-06-15T08:37:36.353Z,20.61
2018-06-15T08:40:05.513Z,20.79
2018-06-15T08:42:34.703Z,21.33
2018-06-15T08:45:03.921Z,21.13
2018-06-15T08:47:33.021Z,20.51
2018-06-15T08:50:02.137Z,19.68
2018-06-15T08:52:31.275Z,19.94
2018-06-15T08:55:00.422Z,20.41
2018-06-15T08:57:29.518Z,21.49
2018-06-15T08:59:58.701Z,21.97
2018-06-15T09:02:27.843Z,21.73
2018-06-15T09:04:56.985Z,21.85
2018-06-15T09:07:27.049Z,21.52
2018-06-15T09:09:56.165Z,22.61
2018-06-15T09:12:25.486Z,22.71
2018-06-15T09:14:54.612Z,23.82
2018-06-15T09:17:23.708Z,23.80
2018-06-15T09:19:52.849Z,24.57
2018-06-15T09:22:21.952Z,22.77
2018-06-15T09:24:51.428Z,22.86
2018-06-15T09:27:20.525Z,23.48
2018-06-15T09:29:49.633Z,22.77
2018-06-15T09:32:18.741Z,23.10
2018-06-15T09:34:47.913Z,24.01
2018-06-15T09:37:17.015Z,23.79
2018-06-15T09:39:46.257Z,23.37
2018-06-15T09:42:15.349Z,23.96
2018-06-15T09:44:44.463Z,23.87
2018-06-15T09:47:13.567Z,23.90
2018-06-15T09:49:42.665Z,24.16
2018-06-15T09:52:11.777Z,24.14
2018-06-15T09:54:40.877Z,23.33
2018-06-15T09:57:10.030Z,24.14
2018-06-15T09:59:39.173Z,24.29
2018-06-15T10:02:08.322Z,24.33
2018-06-15T10:04:37.477Z,23.56
2018-06-15T10:07:06.593Z,23.78
2018-06-15T10:09:35.709Z,23.07
2018-06-15T10:12:04.824Z,23.36
2018-06-15T10:14:33.940Z,22.91
2018-06-15T10:17:03.058Z,22.72
2018-06-15T10:19:32.176Z,22.82
2018-06-15T10:22:01.302Z,22.74
2018-06-15T10:24:30.414Z,22.93
2018-06-15T10:26:59.550Z,23.31
2018-06-15T10:29:28.680Z,23.55
2018-06-15T10:31:57.805Z,23.75
2018-06-15T10:34:26.908Z,23.70
2018-06-15T10:36:56.030Z,24.11
2018-06-15T10:39:25.192Z,24.46
2018-06-15T10:41:54.279Z,24.13
2018-06-15T10:44:23.385Z,24.12
2018-06-15T10:46:52.676Z,23.97
2018-06-15T10:49:21.789Z,24.32
2018-06-15T10:51:50.897Z,24.04
2018-06-15T10:54:20.001Z,24.11
2018-06-15T10:56:49.106Z,24.57
2018-06-15T10:59:18.214Z,24.25
2018-06-15T11:01:47.325Z,24.65
2018-06-15T11:04:16.417Z,24.08
2018-06-15T11:06:45.520Z,24.36
2018-06-15T11:09:14.639Z,24.16
2018-06-15T11:11:43.733Z,24.02
2018-06-15T11:14:12.844Z,23.86
2018-06-15T11:16:41.980Z,23.05
2018-06-15T11:19:11.301Z,23.44
2018-06-15T11:21:40.405Z,23.49
2018-06-15T11:24:09.537Z,23.55
2018-06-15T11:26:38.687Z,23.65
2018-06-15T11:29:07.878Z,23.68
2018-06-15T11:31:37.006Z,23.46
2018-06-15T11:34:06.127Z,23.70
2018-06-15T11:36:35.262Z,23.67
2018-06-15T11:39:06.177Z,23.89
2018-06-15T11:41:35.446Z,23.45
2018-06-15T11:44:04.913Z,23.64
2018-06-15T11:46:34.191Z,23.72
2018-06-15T11:49:03.517Z,23.48
2018-06-15T11:51:32.633Z,23.60
2018-06-15T11:54:01.758Z,23.35
2018-06-15T11:56:31.106Z,23.56
2018-06-15T11:59:00.199Z,23.54
2018-06-15T12:01:29.305Z,23.76
2018-06-15T12:03:58.426Z,23.88
2018-06-15T12:06:27.557Z,23.80
2018-06-15T12:08:56.701Z,23.74
2018-06-15T12:11:25.801Z,23.79
2018-06-15T12:13:54.886Z,23.84
2018-06-15T12:16:23.957Z,23.38
2018-06-15T12:18:53.356Z,23.72
2018-06-15T12:21:22.491Z,23.58
2018-06-15T12:23:51.594Z,23.65
2018-06-15T12:26:20.685Z,23.72
2018-06-15T12:28:49.813Z,23.66
2018-06-15T12:31:18.974Z,23.78
2018-06-15T12:33:48.077Z,23.96
2018-06-15T12:36:17.228Z,24.10
2018-06-15T12:38:46.346Z,23.82
2018-06-15T12:41:15.437Z,23.97
2018-06-15T12:43:44.538Z,24.19
2018-06-15T12:46:13.689Z,23.97
2018-06-15T12:48:42.838Z,24.03
2018-06-15T12:51:11.925Z,24.13
2018-06-15T12:53:41.065Z,24.15
2018-06-15T12:56:10.182Z,24.69
2018-06-15T12:58:39.294Z,25.17
2018-06-15T13:01:08.409Z,25.49
2018-06-15T13:03:37.540Z,24.78
2018-06-15T13:06:06.629Z,24.84
2018-06-15T13:08:35.755Z,25.28
2018-06-15T13:11:04.889Z,25.16
2018-06-15T13:13:35.074Z,24.97
2018-06-15T13:16:04.185Z,25.21
2018-06-15T13:18:33.502Z,25.28
2018-06-15T13:21:02.715Z,25.34
2018-06-15T13:23:31.911Z,25.65
2018-06-15T13:26:01.108Z,26.12
2018-06-15T13:28:30.215Z,25.63
2018-06-15T13:30:59.373Z,25.49
2018-06-15T13:33:28.545Z,25.40
2018-06-15T13:35:58.658Z,25.67
2018-06-15T13:38:27.775Z,24.83
2018-06-15T13:40:56.889Z,25.10
2018-06-15T13:43:25.992Z,24.96
2018-06-15T13:45:55.133Z,24.82
2018-06-15T13:48:24.225Z,24.48
2018-06-15T13:50:53.318Z,24.53
2018-06-15T13:53:22.396Z,24.81
2018-06-15T13:55:51.506Z,25.11
2018-06-15T13:58:20.646Z,25.16
2018-06-15T14:00:49.767Z,24.89
2018-06-15T14:03:18.945Z,24.94
2018-06-15T14:05:48.058Z,25.34
2018-06-15T14:08:17.194Z,25.47
2018-06-15T14:10:46.266Z,25.74
2018-06-15T14:13:15.373Z,25.73
2018-06-15T14:15:44.476Z,25.43
2018-06-15T14:18:13.564Z,25.79
2018-06-15T14:20:42.658Z,25.45
2018-06-15T14:23:11.785Z,25.34
2018-06-15T14:25:40.870Z,25.32
2018-06-15T14:28:10.050Z,25.43
2018-06-15T14:30:39.401Z,25.63
2018-06-15T14:33:08.505Z,24.89
2018-06-15T14:35:37.621Z,25.31
2018-06-15T14:38:06.706Z,25.60
2018-06-15T14:40:35.837Z,25.51
2018-06-15T14:43:04.918Z,25.36
2018-06-15T14:45:34.025Z,25.53
2018-06-15T14:48:03.138Z,25.78
2018-06-15T14:50:32.230Z,25.26
2018-06-15T14:53:01.366Z,24.54
2018-06-15T14:55:31.302Z,24.15
2018-06-15T14:58:00.406Z,24.28
2018-06-15T15:00:29.511Z,23.98
2018-06-15T15:02:58.700Z,23.89
2018-06-15T15:05:27.801Z,23.36
2018-06-15T15:07:56.975Z,23.68
2018-06-15T15:10:26.185Z,23.93
2018-06-15T15:12:55.398Z,24.00
2018-06-15T15:15:25.018Z,23.95
2018-06-15T15:17:54.346Z,23.86
2018-06-15T15:20:23.446Z,23.97
2018-06-15T15:22:52.619Z,24.27
2018-06-15T15:25:21.790Z,24.27
2018-06-15T15:27:50.895Z,24.14
2018-06-15T15:30:20.010Z,23.83
2018-06-15T15:32:49.105Z,23.98
2018-06-15T15:35:18.194Z,24.14
2018-06-15T15:37:47.309Z,24.40
2018-06-15T15:40:16.401Z,24.50
2018-06-15T15:42:45.589Z,24.89
2018-06-15T15:45:14.697Z,25.17
2018-06-15T15:47:43.787Z,25.34
2018-06-15T15:50:12.933Z,25.45
2018-06-15T15:52:42.073Z,25.25
2018-06-15T15:55:11.186Z,25.27
2018-06-15T15:57:40.306Z,25.24
2018-06-15T16:00:09.430Z,25.09
2018-06-15T16:02:38.537Z,24.69
2018-06-15T16:05:07.673Z,25.09
2018-06-15T16:07:36.769Z,25.21
2018-06-15T16:10:05.901Z,25.24
2018-06-15T16:12:35.009Z,24.68
2018-06-15T16:15:04.157Z,25.20
2018-06-15T16:17:33.261Z,24.96
2018-06-15T16:20:02.373Z,24.84
2018-06-15T16:22:31.506Z,24.95
2018-06-15T16:25:00.603Z,24.66
2018-06-15T16:27:29.735Z,25.06
2018-06-15T16:29:58.857Z,24.98
2018-06-15T16:32:27.986Z,25.15
2018-06-15T16:34:57.354Z,25.04
2018-06-15T16:37:26.965Z,25.07
2018-06-15T16:39:56.131Z,25.16
2018-06-15T16:42:25.245Z,25.11
2018-06-15T16:44:54.328Z,25.03
2018-06-15T16:47:23.473Z,24.91
2018-06-15T16:49:52.602Z,24.83
2018-06-15T16:52:21.686Z,24.98
2018-06-15T16:54:50.806Z,24.95
2018-06-15T16:57:19.922Z,24.99
2018-06-15T16:59:49.033Z,25.05
2018-06-15T17:02:18.139Z,24.64
2018-06-15T17:04:47.244Z,24.55
2018-06-15T17:07:16.333Z,24.48
2018-06-15T17:09:45.490Z,24.34
2018-06-15T17:12:14.590Z,24.45
2018-06-15T17:14:43.674Z,24.28
2018-06-15T17:17:12.816Z,24.26
2018-06-15T17:19:41.945Z,24.06
2018-06-15T17:22:11.058Z,23.95
2018-06-15T17:24:40.178Z,23.83
2018-06-15T17:27:09.295Z,23.94
2018-06-15T17:29:38.382Z,23.87
2018-06-15T17:32:07.515Z,23.98
2018-06-15T17:34:36.621Z,23.94
2018-06-15T17:37:05.996Z,23.69
2018-06-15T17:39:35.110Z,23.68
2018-06-15T17:42:04.237Z,23.65
2018-06-15T17:44:33.436Z,23.56
2018-06-15T17:47:02.478Z,23.53
2018-06-15T17:49:31.633Z,23.47
2018-06-15T17:52:00.743Z,23.41
2018-06-15T17:54:29.841Z,23.56
2018-06-15T17:56:59.069Z,23.65
2018-06-15T17:59:28.194Z,23.67
2018-06-15T18:01:57.298Z,23.70
2018-06-15T18:04:26.412Z,23.58
2018-06-15T18:06:55.505Z,23.67
2018-06-15T18:09:24.598Z,23.69
2018-06-15T18:11:53.718Z,23.64
2018-06-15T18:14:22.794Z,23.60
2018-06-15T18:16:51.890Z,23.55
2018-06-15T18:19:20.997Z,23.60
2018-06-15T18:21:50.157Z,23.55
2018-06-15T18:24:19.305Z,23.54
2018-06-15T18:26:48.476Z,23.43
2018-06-15T18:29:17.583Z,23.50
2018-06-15T18:31:46.798Z,23.39
2018-06-15T18:34:15.994Z,23.38
2018-06-15T18:36:45.327Z,23.47
2018-06-15T18:39:15.157Z,23.48
2018-06-15T18:41:44.525Z,23.29
2018-06-15T18:44:13.659Z,23.31
2018-06-15T18:46:42.761Z,23.28
2018-06-15T18:49:11.936Z,23.31
2018-06-15T18:51:41.016Z,23.08
2018-06-15T18:54:10.137Z,23.14
2018-06-15T18:56:39.232Z,22.94
2018-06-15T18:59:08.374Z,22.81
2018-06-15T19:01:37.548Z,22.84
2018-06-15T19:04:07.165Z,22.75
2018-06-15T19:06:36.270Z,22.80
2018-06-15T19:09:08.029Z,22.69
2018-06-15T19:11:37.133Z,22.80
2018-06-15T19:14:06.280Z,22.84
2018-06-15T19:16:35.403Z,22.74
2018-06-15T19:19:04.497Z,22.78
2018-06-15T19:21:33.573Z,22.71
2018-06-15T19:24:02.729Z,22.68
2018-06-15T19:26:31.924Z,22.70
2018-06-15T19:29:01.076Z,22.73
2018-06-15T19:31:30.177Z,22.60
2018-06-15T19:33:59.262Z,22.67
2018-06-15T19:36:28.349Z,22.61
2018-06-15T19:38:57.453Z,22.48
2018-06-15T19:41:26.564Z,22.45
2018-06-15T19:43:55.650Z,22.36
2018-06-15T19:46:24.801Z,22.44
2018-06-15T19:48:53.950Z,22.45
2018-06-15T19:51:23.070Z,22.41
2018-06-15T19:53:52.210Z,22.35
2018-06-15T19:56:21.318Z,22.19
2018-06-15T19:58:50.443Z,22.27
2018-06-15T20:01:19.595Z,22.18
2018-06-15T20:03:48.677Z,22.28
2018-06-15T20:06:17.761Z,22.14
2018-06-15T20:08:46.925Z,22.06
2018-06-15T20:11:16.122Z,22.07
2018-06-15T20:13:45.317Z,22.12
2018-06-15T20:16:14.460Z,22.13
2018-06-15T20:18:43.685Z,22.16
2018-06-15T20:21:12.937Z,22.11
2018-06-15T20:23:42.102Z,21.97
2018-06-15T20:26:11.206Z,22.03
2018-06-15T20:28:40.344Z,21.96
2018-06-15T20:31:11.283Z,21.92
2018-06-15T20:33:40.435Z,21.96
2018-06-15T20:36:09.699Z,21.99
2018-06-15T20:38:38.761Z,21.91
2018-06-15T20:41:07.978Z,21.85
2018-06-15T20:43:37.197Z,21.97
2018-06-15T20:46:06.301Z,21.98
2018-06-15T20:48:35.397Z,21.93
2018-06-15T20:51:04.541Z,21.81
2018-06-15T20:53:33.698Z,21.81
2018-06-15T20:56:02.785Z,21.78
2018-06-15T20:58:32.044Z,21.75
2018-06-15T21:01:01.138Z,21.87
2018-06-15T21:03:30.233Z,21.81
2018-06-15T21:05:59.382Z,21.79
2018-06-15T21:08:28.485Z,21.74
2018-06-15T21:10:57.605Z,21.76
2018-06-15T21:13:26.697Z,21.68
2018-06-15T21:15:55.819Z,21.68
2018-06-15T21:18:24.981Z,21.55
2018-06-15T21:20:54.572Z,21.61
2018-06-15T21:23:23.742Z,21.34
2018-06-15T21:25:52.853Z,21.19
2018-06-15T21:28:22.081Z,20.99
2018-06-15T21:30:51.538Z,21.27
2018-06-15T21:33:20.749Z,21.06
2018-06-15T21:35:49.925Z,21.05
2018-06-15T21:38:19.042Z,21.27
2018-06-15T21:40:48.145Z,21.10
2018-06-15T21:43:17.262Z,21.13
2018-06-15T21:45:46.394Z,21.01
2018-06-15T21:48:15.665Z,20.99
2018-06-15T21:50:44.766Z,21.16
2018-06-15T21:53:13.852Z,21.20
2018-06-15T21:55:42.963Z,21.27
2018-06-15T21:58:12.078Z,21.25
2018-06-15T22:00:41.318Z,21.27
2018-06-15T22:03:10.450Z,21.30
2018-06-15T22:05:39.559Z,21.30
2018-06-15T22:08:08.681Z,21.23
2018-06-15T22:10:37.833Z,21.29
2018-06-15T22:13:07.066Z,21.33
2018-06-15T22:15:36.195Z,21.15
2018-06-15T22:18:05.470Z,21.16
2018-06-15T22:20:34.634Z,21.03
2018-06-15T22:23:03.781Z,21.05
2018-06-15T22:25:32.885Z,20.94
2018-06-15T22:28:01.994Z,20.84
2018-06-15T22:30:31.090Z,20.93
2018-06-15T22:33:00.182Z,20.96
2018-06-15T22:35:29.289Z,21.05
2018-06-15T22:37:58.385Z,20.92
2018-06-15T22:40:27.473Z,20.93
2018-06-15T22:42:56.580Z,20.89
2018-06-15T22:45:25.665Z,20.87
2018-06-15T22:47:54.762Z,20.81
2018-06-15T22:50:23.893Z,20.80
2018-06-15T22:52:53.028Z,20.60
2018-06-15T22:55:22.109Z,20.52
2018-06-15T22:57:51.301Z,20.48
2018-06-15T23:00:24.261Z,20.62
2018-06-15T23:02:53.357Z,20.56
2018-06-15T23:05:22.650Z,20.62
2018-06-15T23:07:51.867Z,20.61
2018-06-15T23:10:21.031Z,20.60
2018-06-15T23:12:50.260Z,20.72
2018-06-15T23:15:19.346Z,20.64
2018-06-15T23:17:48.450Z,20.70
2018-06-15T23:20:17.553Z,20.70
2018-06-15T23:22:46.672Z,20.64
2018-06-15T23:25:15.781Z,20.69
2018-06-15T23:27:44.876Z,20.67
2018-06-15T23:30:14.012Z,20.73
2018-06-15T23:32:43.127Z,20.61
2018-06-15T23:35:12.213Z,20.51
2018-06-15T23:37:41.333Z,20.51
2018-06-15T23:40:10.474Z,20.51
2018-06-15T23:42:39.601Z,20.53
2018-06-15T23:45:08.697Z,20.46
2018-06-15T23:47:37.893Z,20.47
2018-06-15T23:50:07.504Z,20.51
2018-06-15T23:52:36.614Z,20.49
2018-06-15T23:55:05.859Z,20.45
2018-06-15T23:57:34.969Z,20.51
